Time;durP1;ratioP1;P1;durP2;ratioP2;P2;SDS_P1;SDS_P2;PMS_P1;PMS_P2;Temp;Humidity;BMP_temperature;BMP_pressure;BME280_temperature;BME280_humidity;BME280_pressure;Samples;Min_cycle;Max_cycle;Signal;HPM_P1;HPM_P2
2024/02/08 00:00:09;;;;;;;87.82;46.25;;;;;;;;;;6265332;28;24451;-74
2024/02/08 00:03:13;;;;;;;85.78;47.13;;;;;;;;;;6261389;28;24425;-75
2024/02/08 00:06:14;;;;;;;61.53;35.83;;;;;;;;;;6259745;28;24495;-75
2024/02/08 00:09:18;;;;;;;40.42;25.58;;;;;;;;;;6263004;28;24510;-75
2024/02/08 00:12:19;;;;;;;28.63;20.00;;;;;;;;;;6257922;28;24459;-74
2024/02/08 00:15:21;;;;;;;29.70;19.35;;;;;;;;;;6261429;28;25265;-75
2024/02/08 00:18:25;;;;;;;25.35;18.10;;;;;;;;;;6262844;28;24473;-74
2024/02/08 00:21:27;;;;;;;25.73;16.98;;;;;;;;;;6265378;28;24494;-73
2024/02/08 00:24:31;;;;;;;28.13;17.25;;;;;;;;;;6268044;28;24434;-75
2024/02/08 00:27:32;;;;;;;23.08;16.50;;;;;;;;;;6266339;28;24472;-74
2024/02/08 00:30:34;;;;;;;24.35;16.40;;;;;;;;;;6267309;28;24436;-75
2024/02/08 00:33:35;;;;;;;22.23;16.30;;;;;;;;;;6263175;28;24618;-74
2024/02/08 00:36:37;;;;;;;24.38;16.55;;;;;;;;;;6265038;28;24416;-75
2024/02/08 00:39:43;;;;;;;23.25;16.23;;;;;;;;;;6265581;28;24416;-74
2024/02/08 00:42:45;;;;;;;25.83;16.95;;;;;;;;;;6265280;28;24481;-75
2024/02/08 00:45:47;;;;;;;25.20;16.63;;;;;;;;;;6266844;28;24428;-74
2024/02/08 00:48:48;;;;;;;23.65;16.27;;;;;;;;;;6267479;28;24462;-75
2024/02/08 00:51:50;;;;;;;23.80;16.30;;;;;;;;;;6266806;28;24427;-75
2024/02/08 00:54:53;;;;;;;26.00;16.47;;;;;;;;;;6263340;28;24500;-75
2024/02/08 00:57:54;;;;;;;25.33;16.77;;;;;;;;;;6265462;28;24681;-75
2024/02/08 01:00:56;;;;;;;24.77;16.40;;;;;;;;;;6267999;28;25104;-74
2024/02/08 01:03:58;;;;;;;22.38;15.75;;;;;;;;;;6266047;28;24837;-75
2024/02/08 01:06:59;;;;;;;24.20;16.43;;;;;;;;;;6266603;28;24431;-74
2024/02/08 01:10:07;;;;;;;22.90;16.05;;;;;;;;;;6266943;28;24431;-74
2024/02/08 01:13:08;;;;;;;23.80;16.08;;;;;;;;;;6266171;28;24486;-75
2024/02/08 01:16:11;;;;;;;24.38;16.55;;;;;;;;;;6270142;28;24443;-75
2024/02/08 01:19:14;;;;;;;21.80;16.15;;;;;;;;;;6262790;28;24805;-74
2024/02/08 01:22:20;;;;;;;24.92;16.92;;;;;;;;;;6268773;28;24515;-75
2024/02/08 01:25:23;;;;;;;25.20;16.23;;;;;;;;;;6263409;28;24501;-75
2024/02/08 01:28:27;;;;;;;26.55;16.77;;;;;;;;;;6266865;28;24495;-75
2024/02/08 01:31:28;;;;;;;23.95;16.10;;;;;;;;;;6265363;28;24418;-75
2024/02/08 01:34:30;;;;;;;25.65;17.23;;;;;;;;;;6265214;28;24407;-75
2024/02/08 01:37:36;;;;;;;25.42;16.58;;;;;;;;;;6265574;28;24856;-79
2024/02/08 01:40:41;;;;;;;24.47;17.60;;;;;;;;;;6269413;28;24407;-79
2024/02/08 01:43:42;;;;;;;24.15;17.08;;;;;;;;;;6266139;28;24422;-79
2024/02/08 01:46:44;;;;;;;25.70;16.65;;;;;;;;;;6261853;28;24416;-78
2024/02/08 01:49:47;;;;;;;24.73;17.17;;;;;;;;;;6251821;28;24535;-79
2024/02/08 01:52:50;;;;;;;23.73;16.67;;;;;;;;;;6266079;28;24531;-79
2024/02/08 01:55:54;;;;;;;26.88;17.05;;;;;;;;;;6262803;28;24424;-79
2024/02/08 01:58:56;;;;;;;22.92;16.70;;;;;;;;;;6264537;28;24427;-79
2024/02/08 02:02:01;;;;;;;23.30;16.05;;;;;;;;;;6272303;28;24611;-79
2024/02/08 02:05:02;;;;;;;24.37;17.23;;;;;;;;;;6265616;28;24446;-79
2024/02/08 02:08:05;;;;;;;23.40;16.98;;;;;;;;;;6261555;28;24800;-79
2024/02/08 02:11:14;;;;;;;25.77;17.60;;;;;;;;;;6267509;28;24417;-79
2024/02/08 02:14:18;;;;;;;25.10;17.02;;;;;;;;;;6265794;28;24419;-79
2024/02/08 02:17:20;;;;;;;27.95;17.80;;;;;;;;;;6263957;28;24491;-79
2024/02/08 02:20:24;;;;;;;24.77;17.45;;;;;;;;;;6267602;28;24491;-80
2024/02/08 02:23:27;;;;;;;25.15;17.48;;;;;;;;;;6268984;28;24873;-79
2024/02/08 02:26:29;;;;;;;26.03;17.63;;;;;;;;;;6262658;28;24423;-79
2024/02/08 02:29:31;;;;;;;22.40;16.60;;;;;;;;;;6265847;28;24430;-79
2024/02/08 02:32:37;;;;;;;25.88;17.48;;;;;;;;;;6269423;28;20840;-80
2024/02/08 02:35:38;;;;;;;26.35;17.42;;;;;;;;;;6268694;28;24849;-79
2024/02/08 02:38:43;;;;;;;25.10;17.40;;;;;;;;;;6268168;28;24423;-78
2024/02/08 02:41:44;;;;;;;25.73;16.98;;;;;;;;;;6265609;28;24415;-80
2024/02/08 02:44:46;;;;;;;23.20;17.10;;;;;;;;;;6264472;28;24499;-80
2024/02/08 02:47:53;;;;;;;24.27;16.97;;;;;;;;;;6269639;28;24425;-73
2024/02/08 02:50:55;;;;;;;24.35;16.20;;;;;;;;;;6267656;28;24423;-73
2024/02/08 02:53:59;;;;;;;22.90;16.83;;;;;;;;;;6262191;28;24443;-74
2024/02/08 02:57:00;;;;;;;25.85;17.58;;;;;;;;;;6264750;28;24470;-74
2024/02/08 03:00:03;;;;;;;25.15;17.52;;;;;;;;;;6261261;28;24428;-74
2024/02/08 03:03:08;;;;;;;26.67;17.97;;;;;;;;;;6263634;28;24427;-73
2024/02/08 03:06:14;;;;;;;27.90;18.35;;;;;;;;;;6264192;28;24479;-74
2024/02/08 03:09:23;;;;;;;24.58;17.52;;;;;;;;;;6261110;28;25403;-75
2024/02/08 03:12:26;;;;;;;28.42;17.42;;;;;;;;;;6263037;28;24543;-75
2024/02/08 03:15:28;;;;;;;25.67;16.95;;;;;;;;;;6264712;28;24490;-74
2024/02/08 03:18:29;;;;;;;24.30;17.53;;;;;;;;;;6265256;28;24423;-75
2024/02/08 03:21:35;;;;;;;23.23;16.47;;;;;;;;;;6263158;28;24470;-75
2024/02/08 03:24:38;;;;;;;21.95;15.93;;;;;;;;;;6265069;28;24442;-75
2024/02/08 03:27:41;;;;;;;23.40;16.88;;;;;;;;;;6262285;28;24423;-75
2024/02/08 03:30:45;;;;;;;23.17;16.58;;;;;;;;;;6265178;28;24490;-74
2024/02/08 03:33:47;;;;;;;23.83;16.38;;;;;;;;;;6263080;28;24844;-75
2024/02/08 03:36:49;;;;;;;21.13;15.80;;;;;;;;;;6262429;28;24439;-75
2024/02/08 03:39:53;;;;;;;21.67;15.35;;;;;;;;;;6265184;28;24431;-75
2024/02/08 03:42:55;;;;;;;25.05;16.35;;;;;;;;;;6267177;28;24424;-74
2024/02/08 03:45:56;;;;;;;22.00;15.60;;;;;;;;;;6265061;28;24661;-74
2024/02/08 03:48:58;;;;;;;20.60;15.35;;;;;;;;;;6261872;28;24423;-75
2024/02/08 03:51:59;;;;;;;21.65;15.88;;;;;;;;;;6264662;28;24444;-74
2024/02/08 03:55:02;;;;;;;23.02;15.25;;;;;;;;;;6256198;28;24424;-74
2024/02/08 03:58:06;;;;;;;22.25;14.95;;;;;;;;;;6267472;28;24408;-74
2024/02/08 04:01:10;;;;;;;21.98;15.10;;;;;;;;;;6268114;28;24481;-75
2024/02/08 04:04:16;;;;;;;23.17;14.45;;;;;;;;;;6266220;28;25050;-75
2024/02/08 04:07:21;;;;;;;21.10;14.53;;;;;;;;;;6268622;28;24464;-75
2024/02/08 04:53:30;;;;;;;23.10;14.87;;;;;;;;;;6269836;28;24780;-75
2024/02/08 04:53:47;;;;;;;20.48;14.20;;;;;;;;;;6255534;28;24817;-75
2024/02/08 04:56:49;;;;;;;19.70;13.15;;;;;;;;;;6266917;28;24543;-75
2024/02/08 04:59:52;;;;;;;19.40;13.52;;;;;;;;;;6265958;28;24431;-75
2024/02/08 05:02:53;;;;;;;18.80;13.00;;;;;;;;;;6264176;28;24416;-76
2024/02/08 05:05:55;;;;;;;18.88;12.90;;;;;;;;;;6252954;28;24871;-75
2024/02/08 05:08:59;;;;;;;19.58;13.40;;;;;;;;;;6254873;28;24462;-79
2024/02/08 05:12:05;;;;;;;19.42;12.82;;;;;;;;;;6268948;28;24436;-79
2024/02/08 05:15:13;;;;;;;19.30;12.95;;;;;;;;;;6270120;28;24439;-79
2024/02/08 05:18:15;;;;;;;19.17;13.15;;;;;;;;;;6265585;28;24533;-79
2024/02/08 05:21:17;;;;;;;17.42;12.55;;;;;;;;;;6252072;28;24876;-79
2024/02/08 05:24:19;;;;;;;18.52;12.98;;;;;;;;;;6245363;28;24435;-79
2024/02/08 05:27:22;;;;;;;17.35;12.95;;;;;;;;;;6260284;28;24814;-78
2024/02/08 05:30:25;;;;;;;19.48;13.32;;;;;;;;;;6267504;28;24423;-79
2024/02/08 05:33:29;;;;;;;19.70;13.50;;;;;;;;;;6268037;28;24631;-79
2024/02/08 05:36:32;;;;;;;20.37;13.93;;;;;;;;;;6268407;28;24420;-79
2024/02/08 05:39:36;;;;;;;21.05;13.80;;;;;;;;;;6267230;28;24422;-80
2024/02/08 05:42:37;;;;;;;18.85;13.40;;;;;;;;;;6256688;28;25063;-79
2024/02/08 05:45:44;;;;;;;18.83;13.13;;;;;;;;;;6265997;28;24427;-79
2024/02/08 05:48:51;;;;;;;18.13;12.82;;;;;;;;;;6267637;28;24430;-79
2024/02/08 05:51:54;;;;;;;18.92;12.93;;;;;;;;;;6268045;28;24423;-80
2024/02/08 05:54:58;;;;;;;18.63;13.25;;;;;;;;;;6268777;28;24414;-80
2024/02/08 05:58:03;;;;;;;20.23;13.40;;;;;;;;;;6240263;28;24434;-79
2024/02/08 06:01:16;;;;;;;20.42;14.02;;;;;;;;;;6262889;28;24531;-78
2024/02/08 06:04:24;;;;;;;19.10;13.00;;;;;;;;;;6265172;28;24736;-80
2024/02/08 06:07:29;;;;;;;20.38;13.52;;;;;;;;;;6264825;28;24902;-79
2024/02/08 06:10:45;;;;;;;19.67;13.63;;;;;;;;;;6262971;28;24419;-79
2024/02/08 06:13:54;;;;;;;19.48;13.00;;;;;;;;;;6265069;28;24427;-80
2024/02/08 06:16:57;;;;;;;18.83;12.90;;;;;;;;;;6263388;28;24447;-79
2024/02/08 06:20:00;;;;;;;17.50;12.60;;;;;;;;;;6264243;28;24498;-79
2024/02/08 06:23:03;;;;;;;18.25;13.00;;;;;;;;;;6266821;28;24450;-78
2024/02/08 06:26:27;;;;;;;18.17;13.07;;;;;;;;;;6262993;28;24430;-80
2024/02/08 06:29:38;;;;;;;19.50;13.25;;;;;;;;;;6263271;28;24423;-79
2024/02/08 06:32:44;;;;;;;19.67;13.00;;;;;;;;;;6265646;28;24439;-79
2024/02/08 06:35:45;;;;;;;19.70;13.25;;;;;;;;;;6260095;28;24859;-80
2024/02/08 06:38:53;;;;;;;19.20;13.37;;;;;;;;;;6265351;28;24423;-79
2024/02/08 06:42:07;;;;;;;19.58;13.45;;;;;;;;;;6264041;28;24876;-79
2024/02/08 06:45:44;;;;;;;19.83;13.50;;;;;;;;;;6261067;28;24668;-79
2024/02/08 07:37:14;;;;;;;19.98;13.38;;;;;;;;;;6265560;28;24835;-80
2024/02/08 07:38:53;;;;;;;21.33;15.13;;;;;;;;;;6269590;28;24415;-74
2024/02/08 07:41:55;;;;;;;23.17;15.85;;;;;;;;;;6269746;28;24427;-74
2024/02/08 07:44:57;;;;;;;23.60;15.93;;;;;;;;;;6271059;28;24823;-74
2024/02/08 07:48:08;;;;;;;24.20;15.63;;;;;;;;;;6269614;28;24569;-75
2024/02/08 07:51:15;;;;;;;23.25;15.43;;;;;;;;;;6274145;28;24421;-75
2024/02/08 07:54:21;;;;;;;23.58;16.05;;;;;;;;;;6270859;28;24450;-75
2024/02/08 07:57:26;;;;;;;22.95;15.88;;;;;;;;;;6271890;28;24435;-75
2024/02/08 08:00:41;;;;;;;22.83;16.67;;;;;;;;;;6269609;28;24530;-75
2024/02/08 08:03:44;;;;;;;25.55;17.80;;;;;;;;;;6271987;28;24427;-75
2024/02/08 08:06:47;;;;;;;27.77;18.52;;;;;;;;;;6270924;28;24503;-75
2024/02/08 08:09:59;;;;;;;25.75;17.38;;;;;;;;;;6271507;28;24432;-75
2024/02/08 08:13:06;;;;;;;25.57;17.20;;;;;;;;;;6271495;28;24419;-76
2024/02/08 08:19:38;;;;;;;24.38;17.63;;;;;;;;;;6269127;28;24659;-75
2024/02/08 08:22:58;;;;;;;25.92;17.65;;;;;;;;;;6269702;28;24415;-75
2024/02/08 08:26:05;;;;;;;23.45;17.58;;;;;;;;;;6270652;28;24420;-75
2024/02/08 08:29:13;;;;;;;27.08;17.60;;;;;;;;;;6269943;28;24507;-75
2024/02/08 08:35:46;;;;;;;24.30;17.48;;;;;;;;;;6272465;28;24407;-75
2024/02/08 08:38:54;;;;;;;21.80;15.60;;;;;;;;;;6267766;28;24427;-75
2024/02/08 08:41:59;;;;;;;22.97;16.53;;;;;;;;;;6267610;28;24448;-75
2024/02/08 08:45:04;;;;;;;28.20;17.92;;;;;;;;;;6264558;28;24669;-75
2024/02/08 08:48:06;;;;;;;27.27;17.50;;;;;;;;;;6264418;28;24424;-75
2024/02/08 08:51:13;;;;;;;22.67;16.27;;;;;;;;;;6267270;28;24440;-74
2024/02/08 08:54:19;;;;;;;21.52;15.20;;;;;;;;;;6265428;28;24478;-74
2024/02/08 08:57:25;;;;;;;23.08;15.60;;;;;;;;;;6267853;28;24477;-74
2024/02/08 09:00:36;;;;;;;21.38;15.00;;;;;;;;;;6262249;28;24619;-74
2024/02/08 09:03:39;;;;;;;21.10;14.27;;;;;;;;;;6267206;28;24427;-74
2024/02/08 09:06:42;;;;;;;19.65;12.90;;;;;;;;;;6265141;28;24499;-74
2024/02/08 09:13:07;;;;;;;18.60;13.67;;;;;;;;;;6244498;28;24439;-74
2024/02/08 09:19:28;;;;;;;18.60;13.15;;;;;;;;;;6267036;28;24422;-74
2024/02/08 09:22:31;;;;;;;16.70;12.55;;;;;;;;;;6262241;28;24423;-74
2024/02/08 09:25:33;;;;;;;18.02;12.35;;;;;;;;;;6264616;28;24949;-74
2024/02/08 09:28:42;;;;;;;16.02;12.10;;;;;;;;;;6265547;28;24818;-74
2024/02/08 09:31:46;;;;;;;19.42;12.88;;;;;;;;;;6264547;28;24435;-74
2024/02/08 09:34:53;;;;;;;22.08;14.63;;;;;;;;;;6266348;28;24458;-74
2024/02/08 09:37:54;;;;;;;21.42;14.70;;;;;;;;;;6263557;28;24487;-75
2024/02/08 09:40:59;;;;;;;20.02;14.50;;;;;;;;;;6265792;28;24427;-74
2024/02/08 09:44:09;;;;;;;22.13;14.65;;;;;;;;;;6263573;28;24821;-74
2024/02/08 09:47:25;;;;;;;21.87;14.60;;;;;;;;;;6263432;28;24828;-79
2024/02/08 09:50:35;;;;;;;22.63;16.33;;;;;;;;;;6266193;28;24470;-79
2024/02/08 09:53:38;;;;;;;21.20;14.98;;;;;;;;;;6262043;28;24440;-79
2024/02/08 09:56:49;;;;;;;22.08;14.55;;;;;;;;;;6264821;28;24587;-79
2024/02/08 10:00:07;;;;;;;22.63;14.43;;;;;;;;;;6262769;28;24549;-79
2024/02/08 10:03:10;;;;;;;19.27;13.77;;;;;;;;;;6265976;28;24473;-78
2024/02/08 10:06:23;;;;;;;18.25;13.57;;;;;;;;;;6267216;28;24826;-79
2024/02/08 10:09:40;;;;;;;18.23;13.10;;;;;;;;;;6266518;28;24404;-79
2024/02/08 10:12:53;;;;;;;23.40;14.95;;;;;;;;;;6264374;28;24427;-79
2024/02/08 10:16:03;;;;;;;21.42;14.07;;;;;;;;;;6261842;28;24416;-79
2024/02/08 10:19:04;;;;;;;21.30;14.52;;;;;;;;;;6264345;28;24511;-79
2024/02/08 10:22:17;;;;;;;29.60;18.33;;;;;;;;;;6267695;28;25493;-80
2024/02/08 10:28:38;;;;;;;27.60;18.60;;;;;;;;;;6264742;28;24890;-80
2024/02/08 10:31:41;;;;;;;28.00;18.23;;;;;;;;;;6263424;28;24514;-80
2024/02/08 10:34:45;;;;;;;25.63;18.75;;;;;;;;;;6263104;28;24424;-80
2024/02/08 10:37:53;;;;;;;31.25;20.58;;;;;;;;;;6246569;28;24503;-79
2024/02/08 10:40:57;;;;;;;32.75;22.77;;;;;;;;;;6265770;28;24423;-80
2024/02/08 10:43:59;;;;;;;33.65;24.00;;;;;;;;;;6261281;28;24580;-79
2024/02/08 10:47:07;;;;;;;30.00;20.45;;;;;;;;;;6263258;28;24420;-80
2024/02/08 10:50:19;;;;;;;29.02;20.27;;;;;;;;;;6263387;28;24412;-80
2024/02/08 10:56:44;;;;;;;27.23;19.60;;;;;;;;;;6264258;28;25039;-75
2024/02/08 10:59:50;;;;;;;29.45;19.73;;;;;;;;;;6262261;28;24526;-76
2024/02/08 11:03:00;;;;;;;26.80;20.13;;;;;;;;;;6265095;28;24419;-76
2024/02/08 11:06:04;;;;;;;27.45;18.85;;;;;;;;;;6261381;28;24427;-75
2024/02/08 11:09:18;;;;;;;26.10;18.58;;;;;;;;;;6262904;28;24465;-75
2024/02/08 11:12:21;;;;;;;25.27;18.90;;;;;;;;;;6263994;28;24692;-76
2024/02/08 11:15:30;;;;;;;27.05;19.35;;;;;;;;;;6262394;28;24488;-75
2024/02/08 11:18:35;;;;;;;28.05;19.85;;;;;;;;;;6260200;28;24419;-76
2024/02/08 11:21:43;;;;;;;25.98;18.52;;;;;;;;;;6260452;28;24426;-76
2024/02/08 11:24:57;;;;;;;26.20;20.13;;;;;;;;;;6264053;28;24431;-75
2024/02/08 11:28:09;;;;;;;26.33;19.20;;;;;;;;;;6263442;28;24503;-75
2024/02/08 11:31:16;;;;;;;27.70;19.85;;;;;;;;;;6262382;28;24427;-76
2024/02/08 11:34:24;;;;;;;27.63;19.77;;;;;;;;;;6265705;28;24434;-75
2024/02/08 11:37:29;;;;;;;30.42;21.10;;;;;;;;;;6262863;28;24477;-75
2024/02/08 11:40:36;;;;;;;25.30;19.73;;;;;;;;;;6263749;28;24423;-75
2024/02/08 11:43:47;;;;;;;27.85;19.80;;;;;;;;;;6263205;28;24414;-74
2024/02/08 11:46:51;;;;;;;29.50;19.95;;;;;;;;;;6262233;28;24866;-75
2024/02/08 11:50:00;;;;;;;28.95;19.80;;;;;;;;;;6261918;28;24495;-74
2024/02/08 11:53:04;;;;;;;29.55;20.25;;;;;;;;;;6265759;28;24427;-74
2024/02/08 11:56:08;;;;;;;27.83;19.63;;;;;;;;;;6261133;28;24426;-74
2024/02/08 11:59:11;;;;;;;26.05;19.55;;;;;;;;;;6264986;28;24455;-75
2024/02/08 12:02:16;;;;;;;26.57;20.43;;;;;;;;;;6264054;28;24498;-75
2024/02/08 12:05:20;;;;;;;29.27;19.60;;;;;;;;;;6245859;28;24690;-75
2024/02/08 12:08:23;;;;;;;26.33;18.98;;;;;;;;;;6262030;28;24415;-75
2024/02/08 12:11:29;;;;;;;28.95;19.92;;;;;;;;;;6264695;28;24431;-73
2024/02/08 12:14:31;;;;;;;27.37;19.00;;;;;;;;;;6264371;28;24477;-75
2024/02/08 12:17:33;;;;;;;23.67;17.45;;;;;;;;;;6265048;28;24434;-75
2024/02/08 12:20:36;;;;;;;23.58;17.52;;;;;;;;;;6266560;28;24793;-75
2024/02/08 12:23:40;;;;;;;24.42;17.65;;;;;;;;;;6267989;28;24705;-74
2024/02/08 12:26:43;;;;;;;45.08;29.23;;;;;;;;;;6266829;28;24477;-74
2024/02/08 12:29:46;;;;;;;68.05;39.83;;;;;;;;;;6271263;28;24423;-74
2024/02/08 12:32:52;;;;;;;87.38;49.80;;;;;;;;;;6268333;28;24920;-73
2024/02/08 12:35:58;;;;;;;107.43;60.47;;;;;;;;;;6244031;28;24465;-75
2024/02/08 12:39:01;;;;;;;80.10;45.08;;;;;;;;;;6268202;28;24433;-73
2024/02/08 12:42:05;;;;;;;77.55;45.92;;;;;;;;;;6268667;28;24502;-74
2024/02/08 12:45:10;;;;;;;63.15;40.03;;;;;;;;;;6267589;28;24442;-72
2024/02/08 12:48:16;;;;;;;54.58;37.00;;;;;;;;;;6266455;28;24474;-75
2024/02/08 12:51:20;;;;;;;33.67;24.30;;;;;;;;;;6266143;28;24801;-73
2024/02/08 12:54:25;;;;;;;23.75;18.33;;;;;;;;;;6265944;28;24407;-75
2024/02/08 12:57:27;;;;;;;22.93;17.07;;;;;;;;;;6246251;28;24828;-74
2024/02/08 13:00:33;;;;;;;23.85;18.05;;;;;;;;;;6254867;28;24478;-74
2024/02/08 13:03:35;;;;;;;25.38;18.30;;;;;;;;;;6264493;28;24504;-74
2024/02/08 13:06:38;;;;;;;22.48;16.40;;;;;;;;;;6264560;28;24435;-74
2024/02/08 13:09:40;;;;;;;24.02;17.27;;;;;;;;;;6268534;28;24423;-74
2024/02/08 13:12:42;;;;;;;26.30;17.70;;;;;;;;;;6267273;28;24466;-74
2024/02/08 13:15:43;;;;;;;24.83;18.73;;;;;;;;;;6265946;28;24831;-74
2024/02/08 13:18:54;;;;;;;25.48;17.80;;;;;;;;;;6266000;28;24660;-79
2024/02/08 13:21:57;;;;;;;24.52;18.10;;;;;;;;;;6263133;28;24431;-78
2024/02/08 13:25:00;;;;;;;22.88;16.10;;;;;;;;;;6266268;28;24491;-78
2024/02/08 13:28:02;;;;;;;18.45;14.55;;;;;;;;;;6265714;28;24473;-79
2024/02/08 13:31:05;;;;;;;20.47;15.00;;;;;;;;;;6263711;28;24466;-78
2024/02/08 13:34:09;;;;;;;21.50;15.77;;;;;;;;;;6265786;28;24509;-79
2024/02/08 13:37:15;;;;;;;22.58;15.95;;;;;;;;;;6265369;28;24458;-79
2024/02/08 13:40:18;;;;;;;19.57;14.57;;;;;;;;;;6267161;28;24431;-79
2024/02/08 13:43:20;;;;;;;19.67;14.18;;;;;;;;;;6266665;28;24492;-79
2024/02/08 13:46:22;;;;;;;19.05;14.20;;;;;;;;;;6265526;28;24423;-79
2024/02/08 13:49:24;;;;;;;19.42;13.85;;;;;;;;;;6263318;28;24428;-79
2024/02/08 13:52:30;;;;;;;18.25;13.77;;;;;;;;;;6267507;28;24440;-79
2024/02/08 13:55:32;;;;;;;19.73;14.00;;;;;;;;;;6267945;28;24500;-79
2024/02/08 13:58:36;;;;;;;22.23;14.77;;;;;;;;;;6266685;28;24476;-79
2024/02/08 14:01:39;;;;;;;17.38;13.25;;;;;;;;;;6264792;28;24434;-79
2024/02/08 14:04:41;;;;;;;18.95;12.85;;;;;;;;;;6266293;28;24408;-79
2024/02/08 14:07:47;;;;;;;18.43;13.43;;;;;;;;;;6262404;28;24524;-79
2024/02/08 14:10:49;;;;;;;18.42;13.05;;;;;;;;;;6265126;28;25024;-79
2024/02/08 14:13:50;;;;;;;17.02;12.15;;;;;;;;;;6264267;28;24424;-79
2024/02/08 14:16:56;;;;;;;17.35;12.57;;;;;;;;;;6265952;28;24481;-79
2024/02/08 14:19:59;;;;;;;17.30;11.20;;;;;;;;;;6272696;28;24612;-79
2024/02/08 14:23:03;;;;;;;15.13;9.93;;;;;;;;;;6265113;28;24462;-78
2024/02/08 14:26:30;;;;;;;16.08;9.88;;;;;;;;;;6266013;28;24503;-79
2024/02/08 14:29:32;;;;;;;12.30;8.83;;;;;;;;;;6262352;28;24411;-75
2024/02/08 14:32:34;;;;;;;13.98;9.27;;;;;;;;;;6261163;28;24422;-75
2024/02/08 14:35:35;;;;;;;13.95;8.80;;;;;;;;;;6264546;28;24431;-75
2024/02/08 14:38:40;;;;;;;12.23;8.70;;;;;;;;;;6263377;28;24450;-76
2024/02/08 14:41:42;;;;;;;12.05;8.05;;;;;;;;;;6266062;28;24507;-76
2024/02/08 14:44:45;;;;;;;11.90;7.63;;;;;;;;;;6262950;28;24867;-78
2024/02/08 14:47:50;;;;;;;10.85;7.65;;;;;;;;;;6261126;28;24427;-76
2024/02/08 14:50:53;;;;;;;10.98;7.38;;;;;;;;;;6262529;28;24423;-76
2024/02/08 14:53:58;;;;;;;9.93;7.20;;;;;;;;;;6262216;28;24423;-76
2024/02/08 14:57:05;;;;;;;11.25;6.90;;;;;;;;;;6265028;28;25229;-76
2024/02/08 15:03:27;;;;;;;71.35;43.17;;;;;;;;;;6263531;28;24534;-75
2024/02/08 15:06:39;;;;;;;131.40;66.35;;;;;;;;;;6263310;28;24423;-75
2024/02/08 15:09:52;;;;;;;97.03;50.75;;;;;;;;;;6262617;28;24423;-75
2024/02/08 15:12:56;;;;;;;82.25;42.70;;;;;;;;;;6264030;28;24628;-76
2024/02/08 15:15:57;;;;;;;44.28;24.60;;;;;;;;;;6258843;28;24487;-76
2024/02/08 15:18:59;;;;;;;25.98;14.23;;;;;;;;;;6259624;28;24426;-76
2024/02/08 15:22:18;;;;;;;16.45;10.07;;;;;;;;;;6263236;28;24486;-76
2024/02/08 15:25:34;;;;;;;13.90;8.43;;;;;;;;;;6263821;28;24844;-76
2024/02/08 15:28:41;;;;;;;11.07;7.10;;;;;;;;;;6263879;28;24466;-76
2024/02/08 15:31:45;;;;;;;11.32;7.43;;;;;;;;;;6259598;28;24870;-75
2024/02/08 15:34:58;;;;;;;12.07;7.70;;;;;;;;;;6262008;28;24529;-76
2024/02/08 15:41:19;;;;;;;11.43;7.32;;;;;;;;;;6248873;28;24428;-75
2024/02/08 15:44:33;;;;;;;11.80;7.57;;;;;;;;;;6263004;28;24459;-75
2024/02/08 15:47:37;;;;;;;11.88;7.50;;;;;;;;;;6264765;28;24466;-74
2024/02/08 15:50:46;;;;;;;12.13;7.23;;;;;;;;;;6263578;28;24428;-75
2024/02/08 15:53:50;;;;;;;10.77;6.78;;;;;;;;;;6260237;28;24657;-74
2024/02/08 15:56:53;;;;;;;11.40;7.60;;;;;;;;;;6269900;28;24536;-75
2024/02/08 15:59:57;;;;;;;11.27;6.70;;;;;;;;;;6268287;28;24443;-75
2024/02/08 16:03:01;;;;;;;10.53;7.17;;;;;;;;;;6268935;28;24420;-74
2024/02/08 16:06:41;;;;;;;11.98;7.40;;;;;;;;;;6266104;28;24526;-73
2024/02/08 16:09:31;;;;;;;12.60;7.45;;;;;;;;;;6268376;28;24422;-75
2024/02/08 16:12:37;;;;;;;12.30;7.40;;;;;;;;;;6266609;28;24830;-75
2024/02/08 16:15:55;;;;;;;13.10;8.10;;;;;;;;;;6263350;28;24920;-74
2024/02/08 16:19:02;;;;;;;13.15;8.30;;;;;;;;;;6271060;28;24801;-75
2024/02/08 16:22:19;;;;;;;12.77;8.40;;;;;;;;;;6268236;28;24486;-74
2024/02/08 16:25:43;;;;;;;12.88;7.32;;;;;;;;;;6268753;28;24799;-74
2024/02/08 16:28:49;;;;;;;12.77;7.70;;;;;;;;;;6266209;28;24879;-74
2024/02/08 16:31:54;;;;;;;14.55;8.60;;;;;;;;;;6249540;28;24462;-74
2024/02/08 16:35:00;;;;;;;12.10;8.33;;;;;;;;;;6258526;28;24438;-75
2024/02/08 16:38:08;;;;;;;11.75;8.20;;;;;;;;;;6250679;28;24419;-75
2024/02/08 16:41:10;;;;;;;15.50;8.13;;;;;;;;;;6262079;28;24412;-75
2024/02/08 16:44:13;;;;;;;13.98;8.63;;;;;;;;;;6264401;28;24421;-76
2024/02/08 16:47:27;;;;;;;13.70;8.05;;;;;;;;;;6271258;28;24482;-75
2024/02/08 16:50:44;;;;;;;12.80;8.57;;;;;;;;;;6268962;28;24982;-75
2024/02/08 16:53:50;;;;;;;12.65;8.13;;;;;;;;;;6265498;28;25077;-75
2024/02/08 16:56:52;;;;;;;11.93;7.90;;;;;;;;;;6267619;28;24858;-73
2024/02/08 16:59:57;;;;;;;14.18;7.57;;;;;;;;;;6264480;28;24614;-74
2024/02/08 17:03:07;;;;;;;12.13;7.47;;;;;;;;;;6263075;28;24469;-74
2024/02/08 17:06:16;;;;;;;11.00;7.82;;;;;;;;;;6266030;28;24412;-75
2024/02/08 17:09:24;;;;;;;14.18;8.27;;;;;;;;;;6264163;28;24498;-75
2024/02/08 17:12:44;;;;;;;13.43;8.18;;;;;;;;;;6264733;28;24414;-74
2024/02/08 17:15:56;;;;;;;15.90;7.55;;;;;;;;;;6265805;28;24434;-74
2024/02/08 17:19:21;;;;;;;13.13;7.55;;;;;;;;;;6265103;28;24415;-75
2024/02/08 17:22:49;;;;;;;13.27;7.57;;;;;;;;;;6264803;28;24752;-76
2024/02/08 17:26:06;;;;;;;10.80;7.10;;;;;;;;;;6267938;28;24844;-75
2024/02/08 17:29:10;;;;;;;13.85;7.68;;;;;;;;;;6265786;28;24644;-75
2024/02/08 17:32:13;;;;;;;15.35;7.95;;;;;;;;;;6263480;28;24825;-75
2024/02/08 17:35:15;;;;;;;12.75;7.20;;;;;;;;;;6268862;28;24440;-75
2024/02/08 17:38:19;;;;;;;12.45;7.25;;;;;;;;;;6266251;28;24451;-75
2024/02/08 17:41:26;;;;;;;13.05;7.30;;;;;;;;;;6263808;28;24708;-73
2024/02/08 17:44:32;;;;;;;11.77;7.22;;;;;;;;;;6264712;28;24828;-74
2024/02/08 17:47:41;;;;;;;12.23;7.28;;;;;;;;;;6263601;28;24439;-74
2024/02/08 17:50:47;;;;;;;11.00;7.38;;;;;;;;;;6264520;28;24430;-74
2024/02/08 17:53:53;;;;;;;17.60;8.40;;;;;;;;;;6263375;28;24816;-75
2024/02/08 17:57:01;;;;;;;13.45;8.48;;;;;;;;;;6264230;28;24510;-74
2024/02/08 18:00:04;;;;;;;13.32;8.20;;;;;;;;;;6264061;28;24700;-74
2024/02/08 18:03:15;;;;;;;14.90;8.30;;;;;;;;;;6260933;28;24509;-74
2024/02/08 18:06:18;;;;;;;15.25;8.65;;;;;;;;;;6266278;28;24439;-74
2024/02/08 18:09:23;;;;;;;12.65;7.53;;;;;;;;;;6265029;28;24470;-74
2024/02/08 18:12:33;;;;;;;14.57;8.43;;;;;;;;;;6261763;28;24614;-75
2024/02/08 18:15:35;;;;;;;12.43;7.93;;;;;;;;;;6262563;28;24431;-75
2024/02/08 18:18:39;;;;;;;14.30;8.18;;;;;;;;;;6262560;28;24416;-75
2024/02/08 18:21:41;;;;;;;12.25;7.90;;;;;;;;;;6263676;28;24427;-74
2024/02/08 18:24:47;;;;;;;15.23;8.27;;;;;;;;;;6261615;28;24842;-74
2024/02/08 18:27:49;;;;;;;14.23;8.50;;;;;;;;;;6256859;28;24862;-74
2024/02/08 18:30:56;;;;;;;14.68;8.60;;;;;;;;;;6242239;28;24432;-75
2024/02/08 18:34:00;;;;;;;14.95;9.63;;;;;;;;;;6249086;28;24451;-75
2024/02/08 18:37:06;;;;;;;13.37;9.30;;;;;;;;;;6263925;28;25058;-75
2024/02/08 18:40:08;;;;;;;15.00;9.50;;;;;;;;;;6260379;28;24502;-76
2024/02/08 18:43:13;;;;;;;16.70;8.82;;;;;;;;;;6263550;28;24419;-75
2024/02/08 18:46:17;;;;;;;17.80;10.77;;;;;;;;;;6262707;28;24415;-75
2024/02/08 18:49:21;;;;;;;20.10;11.02;;;;;;;;;;6262309;28;24910;-75
2024/02/08 18:52:24;;;;;;;16.00;10.57;;;;;;;;;;6262383;28;25117;-75
2024/02/08 18:55:39;;;;;;;15.15;9.38;;;;;;;;;;6264896;28;24430;-76
2024/02/08 18:58:41;;;;;;;16.50;9.35;;;;;;;;;;6264993;28;24428;-75
2024/02/08 19:01:43;;;;;;;15.60;9.93;;;;;;;;;;6266100;28;24428;-75
2024/02/08 19:04:46;;;;;;;16.20;10.35;;;;;;;;;;6265678;28;24491;-75
2024/02/08 19:07:49;;;;;;;16.13;10.10;;;;;;;;;;6262373;28;24435;-75
2024/02/08 19:10:57;;;;;;;15.63;9.90;;;;;;;;;;6264333;28;24693;-75
2024/02/08 19:14:01;;;;;;;14.73;9.35;;;;;;;;;;6247733;28;24447;-75
2024/02/08 19:17:06;;;;;;;14.80;9.05;;;;;;;;;;6263967;28;24430;-75
2024/02/08 19:20:18;;;;;;;14.33;8.90;;;;;;;;;;6262742;28;25038;-74
2024/02/08 19:23:19;;;;;;;12.55;8.40;;;;;;;;;;6263707;28;24465;-75
2024/02/08 19:26:22;;;;;;;13.98;9.43;;;;;;;;;;6264533;28;24424;-75
2024/02/08 19:29:25;;;;;;;14.52;9.85;;;;;;;;;;6263367;28;24678;-74
2024/02/08 19:32:31;;;;;;;15.45;10.02;;;;;;;;;;6264859;28;24474;-75
2024/02/08 19:35:36;;;;;;;13.95;9.27;;;;;;;;;;6263527;28;24493;-75
2024/02/08 19:38:38;;;;;;;15.15;9.73;;;;;;;;;;6264210;28;24495;-75
2024/02/08 19:41:40;;;;;;;14.05;9.23;;;;;;;;;;6264867;28;24427;-75
2024/02/08 19:44:42;;;;;;;13.90;10.13;;;;;;;;;;6263353;28;24511;-75
2024/02/08 19:47:44;;;;;;;15.63;9.55;;;;;;;;;;6242306;28;24439;-75
2024/02/08 19:50:48;;;;;;;14.57;9.63;;;;;;;;;;6260050;28;24419;-74
2024/02/08 19:53:54;;;;;;;15.25;10.07;;;;;;;;;;6269571;28;24416;-75
2024/02/08 19:57:02;;;;;;;15.07;9.73;;;;;;;;;;6261059;28;24450;-76